La Tuque, Canada
Current Conditions -  °F | °C
As of 7:42 PM on Saturday 25 Oct 2014 (Local Time) from CYOY Reporting Station
Light Rain Light Rain  
Wind Chill: 45°   Ceiling: 800
Heat Index: 45°   Visibility: 2.5mi
Dew Point: 43°   Wind: 0mph
Humidity: 93%   Direction: NA
Pressure: 29.46"   Gusts: NA
Location:  47.44°N, 72.78°W
Report Text: CYOY 252342Z AUTO 00000KT 2 1/2SM -RA OVC008 OVC023 07/06 A2946
Loading
Personal Weather Stations






























Interactive Weather Map
Tropical Storm Tracking
New forecast layout! Learn more

10-Day Weather Forecast

Advertisements
Track Severe Weather on mobile